createdAt,value
2018-11-26T00:02:44.937Z,14.43
2018-11-26T00:05:13.983Z,13.73
2018-11-26T00:07:43.022Z,12.03
2018-11-26T01:02:37.665Z,9.27
2018-11-26T01:05:07.507Z,11.27
2018-11-26T01:07:36.576Z,8.27
2018-11-26T02:02:42.013Z,7.87
2018-11-26T02:05:11.448Z,8.80
2018-11-26T02:07:40.473Z,7.67
2018-11-26T03:02:37.568Z,9.30
2018-11-26T03:05:08.115Z,10.03
2018-11-26T03:07:37.210Z,10.43
2018-11-26T04:02:36.437Z,7.40
2018-11-26T04:05:05.722Z,8.47
2018-11-26T04:07:34.696Z,7.80
2018-11-26T05:02:37.156Z,9.10
2018-11-26T05:05:06.884Z,9.57
2018-11-26T05:07:35.979Z,8.63
2018-11-26T06:02:38.122Z,10.97
2018-11-26T06:05:07.365Z,12.57
2018-11-26T06:07:36.438Z,12.27
2018-11-26T07:02:37.670Z,10.50
2018-11-26T07:05:11.276Z,10.23
2018-11-26T07:07:40.328Z,9.07
2018-11-26T08:02:38.373Z,11.90
2018-11-26T08:05:08.517Z,9.97
2018-11-26T08:07:37.579Z,10.00
2018-11-26T09:02:43.730Z,8.03
2018-11-26T09:05:24.197Z,7.53
2018-11-26T09:07:49.066Z,6.63
2018-11-26T10:02:38.445Z,7.63
2018-11-26T10:05:10.588Z,7.67
2018-11-26T10:07:39.632Z,6.47
2018-11-26T11:02:45.979Z,7.33
2018-11-26T11:05:15.048Z,6.23
2018-11-26T11:07:44.073Z,7.53
2018-11-26T12:02:39.399Z,6.77
2018-11-26T12:05:10.511Z,7.77
2018-11-26T12:07:39.537Z,7.67
2018-11-26T13:02:37.935Z,8.37
2018-11-26T13:05:09.394Z,8.17
2018-11-26T13:07:38.522Z,8.47
2018-11-26T14:02:35.711Z,11.70
2018-11-26T14:05:04.926Z,11.83
2018-11-26T14:07:33.987Z,11.23
2018-11-26T14:10:03.085Z,10.77
2018-11-26T15:02:39.666Z,16.97
2018-11-26T15:05:08.780Z,15.10
2018-11-26T15:07:37.815Z,15.43
2018-11-26T16:02:36.663Z,51.73
2018-11-26T16:05:06.959Z,50.27
2018-11-26T16:07:36.034Z,45.47
2018-11-26T17:02:40.427Z,28.17
2018-11-26T17:05:11.470Z,29.00
2018-11-26T17:07:40.511Z,30.93
2018-11-26T18:02:37.577Z,13.50
2018-11-26T18:05:09.379Z,12.70
2018-11-26T18:07:38.455Z,14.20
2018-11-26T19:02:37.922Z,19.70
2018-11-26T19:05:07.854Z,15.97
2018-11-26T19:07:37.632Z,21.83
2018-11-26T20:02:38.171Z,66.27
2018-11-26T20:05:10.938Z,60.40
2018-11-26T20:07:39.984Z,51.17
2018-11-26T21:02:43.214Z,44.83
2018-11-26T21:05:12.295Z,54.43
2018-11-26T21:07:41.325Z,68.60
2018-11-26T23:02:36.025Z,41.33
2018-11-26T23:05:05.287Z,33.23
2018-11-26T23:07:34.278Z,31.30
2018-11-26T23:10:03.632Z,33.13
2018-11-26T23:12:32.619Z,33.23
2018-11-26T23:15:01.610Z,41.33
2018-11-26T23:17:30.712Z,33.00
2018-11-26T23:19:59.780Z,31.53
2018-11-26T23:22:28.779Z,33.80
2018-11-26T23:24:57.828Z,30.70
2018-11-26T23:27:26.836Z,29.13
2018-11-26T23:29:55.843Z,28.77
2018-11-26T23:32:25.131Z,35.57
2018-11-26T23:34:54.133Z,30.13
2018-11-26T23:37:23.159Z,61.07
2018-11-26T23:39:52.160Z,33.00
2018-11-26T23:42:22.048Z,38.70
2018-11-26T23:44:51.143Z,33.10
2018-11-26T23:47:20.134Z,29.20
2018-11-26T23:49:49.207Z,28.20
2018-11-26T23:52:18.282Z,26.23
2018-11-26T23:54:47.326Z,27.33
2018-11-26T23:57:16.371Z,27.63
2018-11-26T23:59:45.944Z,27.10
